sensor_id;sensor_type;location;lat;lon;timestamp;temperature;humidity
20442;DHT22;10380;52.102;20.614;2023-06-24T00:00:09;19.30;99.90
20442;DHT22;10380;52.102;20.614;2023-06-24T00:02:39;19.30;99.90
20442;DHT22;10380;52.102;20.614;2023-06-24T00:05:10;19.20;99.90
20442;DHT22;10380;52.102;20.614;2023-06-24T00:07:37;19.20;99.90
20442;DHT22;10380;52.102;20.614;2023-06-24T00:10:14;19.20;99.90
20442;DHT22;10380;52.102;20.614;2023-06-24T00:12:45;19.10;99.90
20442;DHT22;10380;52.102;20.614;2023-06-24T00:15:11;19.20;99.90
20442;DHT22;10380;52.102;20.614;2023-06-24T00:17:38;19.10;99.90
20442;DHT22;10380;52.102;20.614;2023-06-24T00:20:06;19.10;99.90
20442;DHT22;10380;52.102;20.614;2023-06-24T00:22:38;19.00;99.90
20442;DHT22;10380;52.102;20.614;2023-06-24T00:25:15;19.10;99.90
20442;DHT22;10380;52.102;20.614;2023-06-24T00:27:42;19.10;99.90
20442;DHT22;10380;52.102;20.614;2023-06-24T00:30:10;19.10;99.90
20442;DHT22;10380;52.102;20.614;2023-06-24T00:32:37;19.10;99.90
20442;DHT22;10380;52.102;20.614;2023-06-24T00:35:04;19.10;99.90
20442;DHT22;10380;52.102;20.614;2023-06-24T00:37:31;19.10;99.90
20442;DHT22;10380;52.102;20.614;2023-06-24T00:39:58;19.10;99.90
20442;DHT22;10380;52.102;20.614;2023-06-24T00:42:34;19.00;99.90
20442;DHT22;10380;52.102;20.614;2023-06-24T00:45:01;19.00;99.90
20442;DHT22;10380;52.102;20.614;2023-06-24T00:47:32;18.90;99.90
20442;DHT22;10380;52.102;20.614;2023-06-24T00:50:01;18.90;99.90
20442;DHT22;10380;52.102;20.614;2023-06-24T00:52:28;18.80;99.90
20442;DHT22;10380;52.102;20.614;2023-06-24T00:54:55;18.80;99.90
20442;DHT22;10380;52.102;20.614;2023-06-24T00:57:22;18.70;99.90
20442;DHT22;10380;52.102;20.614;2023-06-24T00:59:52;18.70;99.90
20442;DHT22;10380;52.102;20.614;2023-06-24T01:02:21;18.70;99.90
20442;DHT22;10380;52.102;20.614;2023-06-24T01:04:49;18.60;99.90
20442;DHT22;10380;52.102;20.614;2023-06-24T01:07:18;18.70;99.90
20442;DHT22;10380;52.102;20.614;2023-06-24T01:09:45;18.70;99.90
20442;DHT22;10380;52.102;20.614;2023-06-24T01:12:12;18.60;99.90
20442;DHT22;10380;52.102;20.614;2023-06-24T01:14:38;18.60;99.90
20442;DHT22;10380;52.102;20.614;2023-06-24T01:17:06;18.70;99.90
20442;DHT22;10380;52.102;20.614;2023-06-24T01:23:11;18.60;99.90
20442;DHT22;10380;52.102;20.614;2023-06-24T01:37:20;18.40;99.90
20442;DHT22;10380;52.102;20.614;2023-06-24T01:39:52;18.30;99.90
20442;DHT22;10380;52.102;20.614;2023-06-24T01:42:22;18.40;99.90
20442;DHT22;10380;52.102;20.614;2023-06-24T01:44:50;18.30;99.90
20442;DHT22;10380;52.102;20.614;2023-06-24T01:47:21;18.30;99.90
20442;DHT22;10380;52.102;20.614;2023-06-24T01:49:52;18.30;99.90
20442;DHT22;10380;52.102;20.614;2023-06-24T01:52:26;18.30;99.90
20442;DHT22;10380;52.102;20.614;2023-06-24T01:54:55;18.30;99.90
20442;DHT22;10380;52.102;20.614;2023-06-24T01:57:23;18.30;99.90
20442;DHT22;10380;52.102;20.614;2023-06-24T01:59:52;18.30;99.90
20442;DHT22;10380;52.102;20.614;2023-06-24T02:02:22;18.30;99.90
20442;DHT22;10380;52.102;20.614;2023-06-24T02:04:52;18.30;99.90
20442;DHT22;10380;52.102;20.614;2023-06-24T02:07:21;18.30;99.90
20442;DHT22;10380;52.102;20.614;2023-06-24T02:09:49;18.30;99.90
20442;DHT22;10380;52.102;20.614;2023-06-24T02:12:17;18.40;99.90
20442;DHT22;10380;52.102;20.614;2023-06-24T02:14:44;18.40;99.90
20442;DHT22;10380;52.102;20.614;2023-06-24T02:17:12;18.40;99.90
20442;DHT22;10380;52.102;20.614;2023-06-24T02:19:41;18.50;99.90
20442;DHT22;10380;52.102;20.614;2023-06-24T02:22:09;18.50;99.90
20442;DHT22;10380;52.102;20.614;2023-06-24T02:24:37;18.50;99.90
20442;DHT22;10380;52.102;20.614;2023-06-24T02:27:06;18.40;99.90
20442;DHT22;10380;52.102;20.614;2023-06-24T02:29:35;18.40;99.90
20442;DHT22;10380;52.102;20.614;2023-06-24T02:32:02;18.30;99.90
20442;DHT22;10380;52.102;20.614;2023-06-24T02:34:29;18.40;99.90
20442;DHT22;10380;52.102;20.614;2023-06-24T02:36:56;18.40;99.90
20442;DHT22;10380;52.102;20.614;2023-06-24T02:39:23;18.40;99.90
20442;DHT22;10380;52.102;20.614;2023-06-24T02:41:50;18.40;99.90
20442;DHT22;10380;52.102;20.614;2023-06-24T02:44:17;18.40;99.90
20442;DHT22;10380;52.102;20.614;2023-06-24T02:46:44;18.40;99.90
20442;DHT22;10380;52.102;20.614;2023-06-24T02:49:14;18.50;99.90
20442;DHT22;10380;52.102;20.614;2023-06-24T02:51:41;18.50;99.90
20442;DHT22;10380;52.102;20.614;2023-06-24T02:54:09;18.50;99.90
20442;DHT22;10380;52.102;20.614;2023-06-24T02:56:36;18.50;99.90
20442;DHT22;10380;52.102;20.614;2023-06-24T02:59:10;18.60;99.90
20442;DHT22;10380;52.102;20.614;2023-06-24T03:01:37;18.60;99.90
20442;DHT22;10380;52.102;20.614;2023-06-24T03:04:05;18.60;99.90
20442;DHT22;10380;52.102;20.614;2023-06-24T03:06:33;18.60;99.90
20442;DHT22;10380;52.102;20.614;2023-06-24T03:09:03;18.60;99.90
20442;DHT22;10380;52.102;20.614;2023-06-24T03:11:30;18.60;99.90
20442;DHT22;10380;52.102;20.614;2023-06-24T03:13:59;18.60;99.90
20442;DHT22;10380;52.102;20.614;2023-06-24T03:16:26;18.70;99.90
20442;DHT22;10380;52.102;20.614;2023-06-24T03:18:53;18.70;99.90
20442;DHT22;10380;52.102;20.614;2023-06-24T03:21:19;18.60;99.90
20442;DHT22;10380;52.102;20.614;2023-06-24T03:23:46;18.60;99.90
20442;DHT22;10380;52.102;20.614;2023-06-24T03:26:13;18.50;99.90
20442;DHT22;10380;52.102;20.614;2023-06-24T03:28:40;18.50;99.90
20442;DHT22;10380;52.102;20.614;2023-06-24T03:31:06;18.50;99.90
20442;DHT22;10380;52.102;20.614;2023-06-24T03:33:33;18.50;99.90
20442;DHT22;10380;52.102;20.614;2023-06-24T03:36:00;18.50;99.90
20442;DHT22;10380;52.102;20.614;2023-06-24T03:38:27;18.40;99.90
20442;DHT22;10380;52.102;20.614;2023-06-24T03:40:54;18.50;99.90
20442;DHT22;10380;52.102;20.614;2023-06-24T03:43:21;18.40;99.90
20442;DHT22;10380;52.102;20.614;2023-06-24T03:45:48;18.50;99.90
20442;DHT22;10380;52.102;20.614;2023-06-24T03:48:15;18.50;99.90
20442;DHT22;10380;52.102;20.614;2023-06-24T03:50:41;18.50;99.90
20442;DHT22;10380;52.102;20.614;2023-06-24T03:53:08;18.60;99.90
20442;DHT22;10380;52.102;20.614;2023-06-24T03:55:35;18.60;99.90
20442;DHT22;10380;52.102;20.614;2023-06-24T03:58:02;18.60;99.90
20442;DHT22;10380;52.102;20.614;2023-06-24T04:00:29;18.60;99.90
20442;DHT22;10380;52.102;20.614;2023-06-24T04:02:56;18.70;99.90
20442;DHT22;10380;52.102;20.614;2023-06-24T04:05:23;18.60;99.90
20442;DHT22;10380;52.102;20.614;2023-06-24T04:07:51;18.70;99.90
20442;DHT22;10380;52.102;20.614;2023-06-24T04:10:19;18.70;99.90
20442;DHT22;10380;52.102;20.614;2023-06-24T04:12:46;18.70;99.90
20442;DHT22;10380;52.102;20.614;2023-06-24T04:15:12;18.80;99.90
20442;DHT22;10380;52.102;20.614;2023-06-24T04:17:39;18.70;99.90
20442;DHT22;10380;52.102;20.614;2023-06-24T04:20:07;18.70;99.90
20442;DHT22;10380;52.102;20.614;2023-06-24T04:22:40;18.80;99.90
20442;DHT22;10380;52.102;20.614;2023-06-24T04:25:08;18.80;99.90
20442;DHT22;10380;52.102;20.614;2023-06-24T04:27:35;18.80;99.90
20442;DHT22;10380;52.102;20.614;2023-06-24T04:30:03;18.80;99.90
20442;DHT22;10380;52.102;20.614;2023-06-24T04:32:30;18.90;99.90
20442;DHT22;10380;52.102;20.614;2023-06-24T04:34:58;19.10;99.90
20442;DHT22;10380;52.102;20.614;2023-06-24T04:37:26;19.20;99.90
20442;DHT22;10380;52.102;20.614;2023-06-24T04:39:53;19.20;99.90
20442;DHT22;10380;52.102;20.614;2023-06-24T04:42:19;19.30;99.90
20442;DHT22;10380;52.102;20.614;2023-06-24T04:44:46;19.30;99.90
20442;DHT22;10380;52.102;20.614;2023-06-24T04:47:18;19.30;99.90
20442;DHT22;10380;52.102;20.614;2023-06-24T04:49:45;19.40;99.90
20442;DHT22;10380;52.102;20.614;2023-06-24T04:52:12;19.50;99.90
20442;DHT22;10380;52.102;20.614;2023-06-24T04:54:39;19.50;99.90
20442;DHT22;10380;52.102;20.614;2023-06-24T04:57:08;19.60;99.90
20442;DHT22;10380;52.102;20.614;2023-06-24T04:59:35;19.70;99.90
20442;DHT22;10380;52.102;20.614;2023-06-24T05:02:04;19.80;99.90
20442;DHT22;10380;52.102;20.614;2023-06-24T05:04:31;19.80;99.90
20442;DHT22;10380;52.102;20.614;2023-06-24T05:06:59;19.80;99.90
20442;DHT22;10380;52.102;20.614;2023-06-24T05:09:26;19.80;99.90
20442;DHT22;10380;52.102;20.614;2023-06-24T05:11:53;19.90;99.90
20442;DHT22;10380;52.102;20.614;2023-06-24T05:14:20;19.90;99.90
20442;DHT22;10380;52.102;20.614;2023-06-24T05:16:46;19.90;99.90
20442;DHT22;10380;52.102;20.614;2023-06-24T05:19:13;19.90;99.90
20442;DHT22;10380;52.102;20.614;2023-06-24T05:21:40;19.90;99.90
20442;DHT22;10380;52.102;20.614;2023-06-24T05:24:07;20.00;99.90
20442;DHT22;10380;52.102;20.614;2023-06-24T05:26:34;20.00;99.90
20442;DHT22;10380;52.102;20.614;2023-06-24T05:29:00;20.00;99.90
20442;DHT22;10380;52.102;20.614;2023-06-24T05:31:27;20.10;99.90
20442;DHT22;10380;52.102;20.614;2023-06-24T05:33:54;20.10;99.90
20442;DHT22;10380;52.102;20.614;2023-06-24T05:36:21;20.10;99.90
20442;DHT22;10380;52.102;20.614;2023-06-24T05:38:48;20.10;99.90
20442;DHT22;10380;52.102;20.614;2023-06-24T05:41:15;20.20;99.90
20442;DHT22;10380;52.102;20.614;2023-06-24T05:43:43;20.30;99.90
20442;DHT22;10380;52.102;20.614;2023-06-24T05:46:10;20.40;99.90
20442;DHT22;10380;52.102;20.614;2023-06-24T05:48:37;20.40;99.90
20442;DHT22;10380;52.102;20.614;2023-06-24T05:51:04;20.50;99.90
20442;DHT22;10380;52.102;20.614;2023-06-24T05:53:31;20.60;99.90
20442;DHT22;10380;52.102;20.614;2023-06-24T05:55:57;20.60;99.90
20442;DHT22;10380;52.102;20.614;2023-06-24T05:58:24;20.60;99.90
20442;DHT22;10380;52.102;20.614;2023-06-24T06:00:51;20.60;99.90
20442;DHT22;10380;52.102;20.614;2023-06-24T06:03:18;20.50;99.90
20442;DHT22;10380;52.102;20.614;2023-06-24T06:05:45;20.60;99.90
20442;DHT22;10380;52.102;20.614;2023-06-24T06:08:12;20.60;99.90
20442;DHT22;10380;52.102;20.614;2023-06-24T06:10:39;20.70;99.90
20442;DHT22;10380;52.102;20.614;2023-06-24T06:13:05;20.70;99.90
20442;DHT22;10380;52.102;20.614;2023-06-24T06:15:32;20.70;99.90
20442;DHT22;10380;52.102;20.614;2023-06-24T06:18:00;20.80;99.90
20442;DHT22;10380;52.102;20.614;2023-06-24T06:20:27;20.80;99.90
20442;DHT22;10380;52.102;20.614;2023-06-24T06:22:54;20.90;99.90
20442;DHT22;10380;52.102;20.614;2023-06-24T06:25:20;21.00;99.90
20442;DHT22;10380;52.102;20.614;2023-06-24T06:27:47;21.00;99.90
20442;DHT22;10380;52.102;20.614;2023-06-24T06:30:14;21.10;99.90
20442;DHT22;10380;52.102;20.614;2023-06-24T06:32:41;21.20;99.90
20442;DHT22;10380;52.102;20.614;2023-06-24T06:35:08;21.30;99.90
20442;DHT22;10380;52.102;20.614;2023-06-24T06:37:35;21.40;99.90
20442;DHT22;10380;52.102;20.614;2023-06-24T06:40:02;21.50;99.90
20442;DHT22;10380;52.102;20.614;2023-06-24T06:42:29;21.60;99.90
20442;DHT22;10380;52.102;20.614;2023-06-24T06:44:56;21.70;99.90
20442;DHT22;10380;52.102;20.614;2023-06-24T06:47:23;21.70;99.90
20442;DHT22;10380;52.102;20.614;2023-06-24T06:49:50;21.70;99.90
20442;DHT22;10380;52.102;20.614;2023-06-24T06:52:17;21.60;99.90
20442;DHT22;10380;52.102;20.614;2023-06-24T06:54:44;21.60;99.90
20442;DHT22;10380;52.102;20.614;2023-06-24T06:57:10;21.50;99.90
20442;DHT22;10380;52.102;20.614;2023-06-24T06:59:37;21.50;99.90
20442;DHT22;10380;52.102;20.614;2023-06-24T07:02:04;21.50;99.90
20442;DHT22;10380;52.102;20.614;2023-06-24T07:04:31;21.40;99.90
20442;DHT22;10380;52.102;20.614;2023-06-24T07:06:59;21.50;99.90
20442;DHT22;10380;52.102;20.614;2023-06-24T07:09:26;21.40;99.90
20442;DHT22;10380;52.102;20.614;2023-06-24T07:11:53;21.40;99.90
20442;DHT22;10380;52.102;20.614;2023-06-24T07:14:19;21.50;99.90
20442;DHT22;10380;52.102;20.614;2023-06-24T07:16:46;21.50;99.90
20442;DHT22;10380;52.102;20.614;2023-06-24T07:19:13;21.60;99.90
20442;DHT22;10380;52.102;20.614;2023-06-24T07:21:40;21.60;99.90
20442;DHT22;10380;52.102;20.614;2023-06-24T07:24:07;21.60;99.90
20442;DHT22;10380;52.102;20.614;2023-06-24T07:26:34;21.70;99.90
20442;DHT22;10380;52.102;20.614;2023-06-24T07:29:00;21.80;99.90
20442;DHT22;10380;52.102;20.614;2023-06-24T07:31:35;22.00;99.90
20442;DHT22;10380;52.102;20.614;2023-06-24T07:34:03;22.00;99.90
20442;DHT22;10380;52.102;20.614;2023-06-24T07:36:30;22.10;99.90
20442;DHT22;10380;52.102;20.614;2023-06-24T07:38:57;22.20;99.90
20442;DHT22;10380;52.102;20.614;2023-06-24T07:41:24;22.20;99.90
20442;DHT22;10380;52.102;20.614;2023-06-24T07:43:50;22.30;99.90
20442;DHT22;10380;52.102;20.614;2023-06-24T07:46:17;22.30;99.90
20442;DHT22;10380;52.102;20.614;2023-06-24T07:48:44;22.30;99.90
20442;DHT22;10380;52.102;20.614;2023-06-24T07:51:11;22.40;99.90
20442;DHT22;10380;52.102;20.614;2023-06-24T07:53:38;22.30;99.90
20442;DHT22;10380;52.102;20.614;2023-06-24T07:56:05;22.30;99.90
20442;DHT22;10380;52.102;20.614;2023-06-24T07:58:33;22.30;99.90
20442;DHT22;10380;52.102;20.614;2023-06-24T08:01:00;22.20;99.90
20442;DHT22;10380;52.102;20.614;2023-06-24T08:03:27;22.20;99.90
20442;DHT22;10380;52.102;20.614;2023-06-24T08:05:55;22.20;99.90
20442;DHT22;10380;52.102;20.614;2023-06-24T08:08:23;22.30;99.90
20442;DHT22;10380;52.102;20.614;2023-06-24T08:10:50;22.40;99.90
20442;DHT22;10380;52.102;20.614;2023-06-24T08:13:16;22.50;99.90
20442;DHT22;10380;52.102;20.614;2023-06-24T08:15:43;22.60;99.90
20442;DHT22;10380;52.102;20.614;2023-06-24T08:18:11;22.80;99.90
20442;DHT22;10380;52.102;20.614;2023-06-24T08:20:38;22.90;99.90
20442;DHT22;10380;52.102;20.614;2023-06-24T08:23:05;23.10;99.90
20442;DHT22;10380;52.102;20.614;2023-06-24T08:25:31;23.20;99.90
20442;DHT22;10380;52.102;20.614;2023-06-24T08:27:59;23.10;99.90
20442;DHT22;10380;52.102;20.614;2023-06-24T08:30:26;23.10;99.90
20442;DHT22;10380;52.102;20.614;2023-06-24T08:32:52;23.10;99.90
20442;DHT22;10380;52.102;20.614;2023-06-24T08:35:19;23.10;99.90
20442;DHT22;10380;52.102;20.614;2023-06-24T08:37:46;23.20;99.90
20442;DHT22;10380;52.102;20.614;2023-06-24T08:40:13;23.30;99.90
20442;DHT22;10380;52.102;20.614;2023-06-24T08:42:40;23.50;99.90
20442;DHT22;10380;52.102;20.614;2023-06-24T08:45:07;23.60;99.90
20442;DHT22;10380;52.102;20.614;2023-06-24T08:47:34;23.70;99.90
20442;DHT22;10380;52.102;20.614;2023-06-24T08:50:05;23.70;99.90
20442;DHT22;10380;52.102;20.614;2023-06-24T08:52:36;23.70;99.90
20442;DHT22;10380;52.102;20.614;2023-06-24T08:55:05;23.70;99.90
20442;DHT22;10380;52.102;20.614;2023-06-24T08:57:32;23.70;99.90
20442;DHT22;10380;52.102;20.614;2023-06-24T08:59:59;23.70;99.90
20442;DHT22;10380;52.102;20.614;2023-06-24T09:02:27;23.80;99.90
20442;DHT22;10380;52.102;20.614;2023-06-24T09:04:54;23.80;99.90
20442;DHT22;10380;52.102;20.614;2023-06-24T09:07:28;23.80;99.90
20442;DHT22;10380;52.102;20.614;2023-06-24T09:09:55;23.80;99.90
20442;DHT22;10380;52.102;20.614;2023-06-24T09:12:24;23.90;99.90
20442;DHT22;10380;52.102;20.614;2023-06-24T09:14:52;23.80;99.90
20442;DHT22;10380;52.102;20.614;2023-06-24T09:17:19;23.80;99.90
20442;DHT22;10380;52.102;20.614;2023-06-24T09:19:50;23.80;99.90
20442;DHT22;10380;52.102;20.614;2023-06-24T09:22:17;23.90;99.90
20442;DHT22;10380;52.102;20.614;2023-06-24T09:24:46;23.80;99.90
20442;DHT22;10380;52.102;20.614;2023-06-24T09:27:17;23.80;99.90
20442;DHT22;10380;52.102;20.614;2023-06-24T09:29:47;23.90;99.90
20442;DHT22;10380;52.102;20.614;2023-06-24T09:32:14;24.00;99.90
20442;DHT22;10380;52.102;20.614;2023-06-24T09:34:41;24.00;99.90
20442;DHT22;10380;52.102;20.614;2023-06-24T09:37:08;24.00;99.90
20442;DHT22;10380;52.102;20.614;2023-06-24T09:39:39;23.90;99.90
20442;DHT22;10380;52.102;20.614;2023-06-24T09:42:06;23.90;99.90
20442;DHT22;10380;52.102;20.614;2023-06-24T09:44:34;23.90;99.90
20442;DHT22;10380;52.102;20.614;2023-06-24T09:47:01;23.90;99.90
20442;DHT22;10380;52.102;20.614;2023-06-24T09:49:28;23.90;99.90
20442;DHT22;10380;52.102;20.614;2023-06-24T09:51:57;23.80;99.90
20442;DHT22;10380;52.102;20.614;2023-06-24T09:54:28;23.80;99.90
20442;DHT22;10380;52.102;20.614;2023-06-24T09:57:02;23.80;99.90
20442;DHT22;10380;52.102;20.614;2023-06-24T09:59:30;23.70;99.90
20442;DHT22;10380;52.102;20.614;2023-06-24T10:02:00;23.70;99.90
20442;DHT22;10380;52.102;20.614;2023-06-24T10:04:29;23.80;99.90
20442;DHT22;10380;52.102;20.614;2023-06-24T10:06:56;23.80;99.90
20442;DHT22;10380;52.102;20.614;2023-06-24T10:09:24;23.70;99.90
20442;DHT22;10380;52.102;20.614;2023-06-24T10:11:51;23.70;99.90
20442;DHT22;10380;52.102;20.614;2023-06-24T10:14:18;23.60;99.90
20442;DHT22;10380;52.102;20.614;2023-06-24T10:16:44;23.60;99.90
20442;DHT22;10380;52.102;20.614;2023-06-24T10:19:19;23.60;99.90
20442;DHT22;10380;52.102;20.614;2023-06-24T10:21:54;23.60;99.90
20442;DHT22;10380;52.102;20.614;2023-06-24T10:24:32;23.50;99.90
20442;DHT22;10380;52.102;20.614;2023-06-24T10:27:08;23.50;99.90
20442;DHT22;10380;52.102;20.614;2023-06-24T10:29:38;23.60;99.90
20442;DHT22;10380;52.102;20.614;2023-06-24T10:32:09;23.60;99.90
20442;DHT22;10380;52.102;20.614;2023-06-24T10:34:44;23.60;99.90
20442;DHT22;10380;52.102;20.614;2023-06-24T10:37:18;23.60;99.90
20442;DHT22;10380;52.102;20.614;2023-06-24T10:40:00;23.40;99.90
20442;DHT22;10380;52.102;20.614;2023-06-24T10:42:37;23.40;99.90
20442;DHT22;10380;52.102;20.614;2023-06-24T10:47:42;23.00;99.90
20442;DHT22;10380;52.102;20.614;2023-06-24T10:50:14;22.90;99.90
20442;DHT22;10380;52.102;20.614;2023-06-24T10:52:46;22.80;99.90
20442;DHT22;10380;52.102;20.614;2023-06-24T10:55:15;22.70;99.90
20442;DHT22;10380;52.102;20.614;2023-06-24T10:57:42;22.70;99.90
20442;DHT22;10380;52.102;20.614;2023-06-24T11:00:11;22.70;99.90
20442;DHT22;10380;52.102;20.614;2023-06-24T11:02:38;22.70;99.90
20442;DHT22;10380;52.102;20.614;2023-06-24T11:05:06;22.70;99.90
20442;DHT22;10380;52.102;20.614;2023-06-24T11:07:34;22.70;99.90
20442;DHT22;10380;52.102;20.614;2023-06-24T11:10:13;22.80;99.90
20442;DHT22;10380;52.102;20.614;2023-06-24T11:12:42;22.80;99.90
20442;DHT22;10380;52.102;20.614;2023-06-24T11:15:11;22.80;99.90
20442;DHT22;10380;52.102;20.614;2023-06-24T11:17:39;22.80;99.90
20442;DHT22;10380;52.102;20.614;2023-06-24T11:20:08;22.70;99.90
20442;DHT22;10380;52.102;20.614;2023-06-24T11:22:35;22.70;99.90
20442;DHT22;10380;52.102;20.614;2023-06-24T11:25:02;22.60;99.90
20442;DHT22;10380;52.102;20.614;2023-06-24T11:27:30;22.60;99.90
20442;DHT22;10380;52.102;20.614;2023-06-24T11:29:59;22.60;99.90
20442;DHT22;10380;52.102;20.614;2023-06-24T11:32:35;22.60;99.90
20442;DHT22;10380;52.102;20.614;2023-06-24T11:35:04;22.60;99.90
20442;DHT22;10380;52.102;20.614;2023-06-24T11:37:32;22.50;99.90
20442;DHT22;10380;52.102;20.614;2023-06-24T11:40:06;22.40;99.90
20442;DHT22;10380;52.102;20.614;2023-06-24T11:42:40;22.40;99.90
20442;DHT22;10380;52.102;20.614;2023-06-24T11:45:12;22.30;99.90
20442;DHT22;10380;52.102;20.614;2023-06-24T11:47:42;22.20;99.90
20442;DHT22;10380;52.102;20.614;2023-06-24T11:50:09;22.20;99.90
20442;DHT22;10380;52.102;20.614;2023-06-24T11:55:20;22.30;99.90
20442;DHT22;10380;52.102;20.614;2023-06-24T11:57:58;22.30;99.90
20442;DHT22;10380;52.102;20.614;2023-06-24T12:00:31;22.30;99.90
20442;DHT22;10380;52.102;20.614;2023-06-24T12:03:00;22.40;99.90
20442;DHT22;10380;52.102;20.614;2023-06-24T12:05:33;22.50;99.90
20442;DHT22;10380;52.102;20.614;2023-06-24T12:08:09;22.50;99.90
20442;DHT22;10380;52.102;20.614;2023-06-24T12:10:38;22.60;99.90
20442;DHT22;10380;52.102;20.614;2023-06-24T12:13:06;22.60;99.90
20442;DHT22;10380;52.102;20.614;2023-06-24T12:15:35;22.70;99.90
20442;DHT22;10380;52.102;20.614;2023-06-24T12:18:02;22.70;99.90
20442;DHT22;10380;52.102;20.614;2023-06-24T12:20:29;22.70;99.90
20442;DHT22;10380;52.102;20.614;2023-06-24T12:23:03;22.80;99.90
20442;DHT22;10380;52.102;20.614;2023-06-24T12:25:33;22.90;99.90
20442;DHT22;10380;52.102;20.614;2023-06-24T12:28:00;23.00;99.90
20442;DHT22;10380;52.102;20.614;2023-06-24T12:30:27;23.00;99.90
20442;DHT22;10380;52.102;20.614;2023-06-24T12:32:54;23.10;99.90
20442;DHT22;10380;52.102;20.614;2023-06-24T12:35:22;23.20;99.90
20442;DHT22;10380;52.102;20.614;2023-06-24T12:37:52;23.40;99.90
20442;DHT22;10380;52.102;20.614;2023-06-24T12:40:19;23.60;99.90
20442;DHT22;10380;52.102;20.614;2023-06-24T12:42:46;23.90;99.90
20442;DHT22;10380;52.102;20.614;2023-06-24T12:45:13;24.20;99.90
20442;DHT22;10380;52.102;20.614;2023-06-24T12:47:40;24.40;99.90
20442;DHT22;10380;52.102;20.614;2023-06-24T12:50:07;24.60;99.90
20442;DHT22;10380;52.102;20.614;2023-06-24T12:52:36;24.90;99.90
20442;DHT22;10380;52.102;20.614;2023-06-24T12:55:04;25.10;99.90
20442;DHT22;10380;52.102;20.614;2023-06-24T12:57:31;25.30;99.90
20442;DHT22;10380;52.102;20.614;2023-06-24T12:59:58;25.40;99.90
20442;DHT22;10380;52.102;20.614;2023-06-24T13:02:25;25.50;99.90
20442;DHT22;10380;52.102;20.614;2023-06-24T13:04:51;25.50;99.90
20442;DHT22;10380;52.102;20.614;2023-06-24T13:07:18;25.60;99.90
20442;DHT22;10380;52.102;20.614;2023-06-24T13:09:45;25.50;99.90
20442;DHT22;10380;52.102;20.614;2023-06-24T13:12:12;25.40;99.90
20442;DHT22;10380;52.102;20.614;2023-06-24T13:14:39;25.20;99.90
20442;DHT22;10380;52.102;20.614;2023-06-24T13:17:06;24.90;99.90
20442;DHT22;10380;52.102;20.614;2023-06-24T13:19:32;24.60;99.90
20442;DHT22;10380;52.102;20.614;2023-06-24T13:21:59;24.30;99.90
20442;DHT22;10380;52.102;20.614;2023-06-24T13:24:26;24.10;99.90
20442;DHT22;10380;52.102;20.614;2023-06-24T13:26:53;23.90;99.90
20442;DHT22;10380;52.102;20.614;2023-06-24T13:29:20;23.80;99.90
20442;DHT22;10380;52.102;20.614;2023-06-24T13:31:47;23.70;99.90
20442;DHT22;10380;52.102;20.614;2023-06-24T13:34:14;23.70;99.90
20442;DHT22;10380;52.102;20.614;2023-06-24T13:36:41;23.70;99.90
20442;DHT22;10380;52.102;20.614;2023-06-24T13:39:09;23.70;99.90
20442;DHT22;10380;52.102;20.614;2023-06-24T13:41:39;23.80;99.90
20442;DHT22;10380;52.102;20.614;2023-06-24T13:44:06;23.80;99.90
20442;DHT22;10380;52.102;20.614;2023-06-24T13:46:33;23.70;99.90
20442;DHT22;10380;52.102;20.614;2023-06-24T13:49:00;23.60;99.90
20442;DHT22;10380;52.102;20.614;2023-06-24T13:51:31;23.50;99.90
20442;DHT22;10380;52.102;20.614;2023-06-24T13:53:58;23.30;99.90
20442;DHT22;10380;52.102;20.614;2023-06-24T13:56:26;23.20;99.90
20442;DHT22;10380;52.102;20.614;2023-06-24T13:58:54;23.10;99.90
20442;DHT22;10380;52.102;20.614;2023-06-24T14:01:21;22.90;99.90
20442;DHT22;10380;52.102;20.614;2023-06-24T14:03:49;22.80;99.90
20442;DHT22;10380;52.102;20.614;2023-06-24T14:06:20;22.70;99.90
20442;DHT22;10380;52.102;20.614;2023-06-24T14:08:47;22.70;99.90
20442;DHT22;10380;52.102;20.614;2023-06-24T14:11:14;22.60;99.90
20442;DHT22;10380;52.102;20.614;2023-06-24T14:13:42;22.60;99.90
20442;DHT22;10380;52.102;20.614;2023-06-24T14:16:09;22.50;99.90
20442;DHT22;10380;52.102;20.614;2023-06-24T14:18:37;22.40;99.90
20442;DHT22;10380;52.102;20.614;2023-06-24T14:21:05;22.40;99.90
20442;DHT22;10380;52.102;20.614;2023-06-24T14:23:33;22.30;99.90
20442;DHT22;10380;52.102;20.614;2023-06-24T14:26:00;22.30;99.90
20442;DHT22;10380;52.102;20.614;2023-06-24T14:28:27;22.20;99.90
20442;DHT22;10380;52.102;20.614;2023-06-24T14:30:54;22.00;99.90
20442;DHT22;10380;52.102;20.614;2023-06-24T14:33:21;21.80;99.90
20442;DHT22;10380;52.102;20.614;2023-06-24T14:35:47;21.60;99.90
20442;DHT22;10380;52.102;20.614;2023-06-24T14:38:14;21.40;99.90
20442;DHT22;10380;52.102;20.614;2023-06-24T14:40:41;21.20;99.90
20442;DHT22;10380;52.102;20.614;2023-06-24T14:43:08;21.00;99.90
20442;DHT22;10380;52.102;20.614;2023-06-24T14:45:35;20.80;99.90
20442;DHT22;10380;52.102;20.614;2023-06-24T14:48:01;20.70;99.90
20442;DHT22;10380;52.102;20.614;2023-06-24T14:50:28;20.50;99.90
20442;DHT22;10380;52.102;20.614;2023-06-24T14:52:55;20.40;99.90
20442;DHT22;10380;52.102;20.614;2023-06-24T14:55:22;20.20;99.90
20442;DHT22;10380;52.102;20.614;2023-06-24T14:57:49;20.00;99.90
20442;DHT22;10380;52.102;20.614;2023-06-24T15:00:16;19.90;99.90
20442;DHT22;10380;52.102;20.614;2023-06-24T15:02:43;19.70;99.90
20442;DHT22;10380;52.102;20.614;2023-06-24T15:05:10;19.60;99.90
20442;DHT22;10380;52.102;20.614;2023-06-24T15:07:37;19.50;99.90
20442;DHT22;10380;52.102;20.614;2023-06-24T15:10:05;19.50;99.90
20442;DHT22;10380;52.102;20.614;2023-06-24T15:12:32;19.40;99.90
20442;DHT22;10380;52.102;20.614;2023-06-24T15:15:01;19.40;99.90
20442;DHT22;10380;52.102;20.614;2023-06-24T15:17:28;19.30;99.90
20442;DHT22;10380;52.102;20.614;2023-06-24T15:19:56;19.30;99.90
20442;DHT22;10380;52.102;20.614;2023-06-24T15:22:23;19.30;99.90
20442;DHT22;10380;52.102;20.614;2023-06-24T15:24:50;19.40;99.90
20442;DHT22;10380;52.102;20.614;2023-06-24T15:27:17;19.50;99.90
20442;DHT22;10380;52.102;20.614;2023-06-24T15:29:44;19.50;99.90
20442;DHT22;10380;52.102;20.614;2023-06-24T15:32:11;19.70;99.90
20442;DHT22;10380;52.102;20.614;2023-06-24T15:34:38;19.90;99.90
20442;DHT22;10380;52.102;20.614;2023-06-24T15:37:05;20.10;99.90
20442;DHT22;10380;52.102;20.614;2023-06-24T15:39:32;20.30;99.90